sensor_id;sensor_type;location;lat;lon;timestamp;P1;durP1;ratioP1;P2;durP2;ratioP2
5900;SDS011;2976;49.764;9.796;2022-08-21T00:00:51;10.33;;;7.27;;
5900;SDS011;2976;49.764;9.796;2022-08-21T00:03:17;11.40;;;8.13;;
5900;SDS011;2976;49.764;9.796;2022-08-21T00:05:47;11.33;;;8.33;;
5900;SDS011;2976;49.764;9.796;2022-08-21T00:08:15;11.43;;;7.63;;
5900;SDS011;2976;49.764;9.796;2022-08-21T00:10:42;8.80;;;6.37;;
5900;SDS011;2976;49.764;9.796;2022-08-21T00:13:09;15.00;;;5.87;;
5900;SDS011;2976;49.764;9.796;2022-08-21T00:15:36;11.43;;;6.50;;
5900;SDS011;2976;49.764;9.796;2022-08-21T00:18:03;13.20;;;7.50;;
5900;SDS011;2976;49.764;9.796;2022-08-21T00:20:30;8.90;;;7.10;;
5900;SDS011;2976;49.764;9.796;2022-08-21T00:22:56;10.67;;;7.70;;
5900;SDS011;2976;49.764;9.796;2022-08-21T00:25:21;15.73;;;8.90;;
5900;SDS011;2976;49.764;9.796;2022-08-21T00:27:47;12.00;;;8.30;;
5900;SDS011;2976;49.764;9.796;2022-08-21T00:30:14;16.80;;;10.07;;
5900;SDS011;2976;49.764;9.796;2022-08-21T00:32:41;17.87;;;11.03;;
5900;SDS011;2976;49.764;9.796;2022-08-21T00:35:08;16.97;;;10.50;;
5900;SDS011;2976;49.764;9.796;2022-08-21T00:37:36;17.50;;;11.37;;
5900;SDS011;2976;49.764;9.796;2022-08-21T00:40:07;16.87;;;10.83;;
5900;SDS011;2976;49.764;9.796;2022-08-21T00:42:34;17.83;;;11.20;;
5900;SDS011;2976;49.764;9.796;2022-08-21T00:45:01;23.90;;;10.93;;
5900;SDS011;2976;49.764;9.796;2022-08-21T00:47:28;21.93;;;11.90;;
5900;SDS011;2976;49.764;9.796;2022-08-21T00:49:53;15.33;;;10.53;;
5900;SDS011;2976;49.764;9.796;2022-08-21T00:52:20;18.27;;;11.40;;
5900;SDS011;2976;49.764;9.796;2022-08-21T00:54:49;19.20;;;11.00;;
5900;SDS011;2976;49.764;9.796;2022-08-21T00:57:17;16.67;;;10.73;;
5900;SDS011;2976;49.764;9.796;2022-08-21T00:59:46;13.30;;;10.07;;
5900;SDS011;2976;49.764;9.796;2022-08-21T01:02:15;18.20;;;10.27;;
5900;SDS011;2976;49.764;9.796;2022-08-21T01:04:41;13.73;;;9.07;;
5900;SDS011;2976;49.764;9.796;2022-08-21T01:07:07;13.37;;;10.00;;
5900;SDS011;2976;49.764;9.796;2022-08-21T01:09:33;14.83;;;9.00;;
5900;SDS011;2976;49.764;9.796;2022-08-21T01:11:59;13.23;;;9.27;;
5900;SDS011;2976;49.764;9.796;2022-08-21T01:14:24;25.43;;;10.73;;
5900;SDS011;2976;49.764;9.796;2022-08-21T01:16:51;19.20;;;10.87;;
5900;SDS011;2976;49.764;9.796;2022-08-21T01:19:18;17.00;;;10.70;;
5900;SDS011;2976;49.764;9.796;2022-08-21T01:21:45;14.37;;;10.53;;
5900;SDS011;2976;49.764;9.796;2022-08-21T01:24:11;15.27;;;11.17;;
5900;SDS011;2976;49.764;9.796;2022-08-21T01:26:37;14.10;;;9.73;;
5900;SDS011;2976;49.764;9.796;2022-08-21T01:31:55;12.40;;;8.70;;
5900;SDS011;2976;49.764;9.796;2022-08-21T01:34:20;17.23;;;10.03;;
5900;SDS011;2976;49.764;9.796;2022-08-21T01:36:46;17.03;;;10.73;;
5900;SDS011;2976;49.764;9.796;2022-08-21T01:39:13;16.80;;;11.10;;
5900;SDS011;2976;49.764;9.796;2022-08-21T01:41:39;17.50;;;10.73;;
5900;SDS011;2976;49.764;9.796;2022-08-21T01:44:05;16.57;;;11.43;;
5900;SDS011;2976;49.764;9.796;2022-08-21T01:46:30;15.83;;;10.77;;
5900;SDS011;2976;49.764;9.796;2022-08-21T01:48:56;20.13;;;12.20;;
5900;SDS011;2976;49.764;9.796;2022-08-21T01:51:22;14.30;;;10.50;;
5900;SDS011;2976;49.764;9.796;2022-08-21T01:53:47;15.20;;;10.10;;
5900;SDS011;2976;49.764;9.796;2022-08-21T01:56:14;16.07;;;9.70;;
5900;SDS011;2976;49.764;9.796;2022-08-21T01:58:41;12.63;;;9.53;;
5900;SDS011;2976;49.764;9.796;2022-08-21T02:01:09;17.83;;;10.20;;
5900;SDS011;2976;49.764;9.796;2022-08-21T02:03:35;22.53;;;10.00;;
5900;SDS011;2976;49.764;9.796;2022-08-21T02:06:01;13.10;;;8.13;;
5900;SDS011;2976;49.764;9.796;2022-08-21T02:08:27;10.93;;;7.63;;
5900;SDS011;2976;49.764;9.796;2022-08-21T02:10:53;17.47;;;10.40;;
5900;SDS011;2976;49.764;9.796;2022-08-21T02:13:19;11.40;;;8.90;;
5900;SDS011;2976;49.764;9.796;2022-08-21T02:15:45;11.40;;;9.00;;
5900;SDS011;2976;49.764;9.796;2022-08-21T02:18:10;17.73;;;9.53;;
5900;SDS011;2976;49.764;9.796;2022-08-21T02:20:37;15.40;;;11.23;;
5900;SDS011;2976;49.764;9.796;2022-08-21T02:23:05;14.47;;;10.87;;
5900;SDS011;2976;49.764;9.796;2022-08-21T02:25:32;25.43;;;12.30;;
5900;SDS011;2976;49.764;9.796;2022-08-21T02:27:59;20.07;;;10.50;;
5900;SDS011;2976;49.764;9.796;2022-08-21T02:30:30;13.87;;;9.30;;
5900;SDS011;2976;49.764;9.796;2022-08-21T02:32:59;12.20;;;7.90;;
5900;SDS011;2976;49.764;9.796;2022-08-21T02:35:26;9.63;;;7.90;;
5900;SDS011;2976;49.764;9.796;2022-08-21T02:37:53;13.90;;;9.70;;
5900;SDS011;2976;49.764;9.796;2022-08-21T02:40:25;14.43;;;10.20;;
5900;SDS011;2976;49.764;9.796;2022-08-21T02:42:53;15.17;;;10.60;;
5900;SDS011;2976;49.764;9.796;2022-08-21T02:45:19;14.20;;;8.80;;
5900;SDS011;2976;49.764;9.796;2022-08-21T02:47:54;29.83;;;8.23;;
5900;SDS011;2976;49.764;9.796;2022-08-21T02:50:26;35.43;;;6.40;;
5900;SDS011;2976;49.764;9.796;2022-08-21T02:52:54;6.30;;;5.07;;
5900;SDS011;2976;49.764;9.796;2022-08-21T02:55:21;8.53;;;6.23;;
5900;SDS011;2976;49.764;9.796;2022-08-21T02:57:48;8.70;;;6.50;;
5900;SDS011;2976;49.764;9.796;2022-08-21T03:00:14;8.83;;;7.50;;
5900;SDS011;2976;49.764;9.796;2022-08-21T03:02:41;15.70;;;11.40;;
5900;SDS011;2976;49.764;9.796;2022-08-21T03:05:07;19.23;;;10.33;;
5900;SDS011;2976;49.764;9.796;2022-08-21T03:07:35;16.80;;;10.10;;
5900;SDS011;2976;49.764;9.796;2022-08-21T03:10:01;11.63;;;8.53;;
5900;SDS011;2976;49.764;9.796;2022-08-21T03:12:31;10.40;;;7.30;;
5900;SDS011;2976;49.764;9.796;2022-08-21T03:14:56;14.13;;;6.63;;
5900;SDS011;2976;49.764;9.796;2022-08-21T03:17:22;8.17;;;6.97;;
5900;SDS011;2976;49.764;9.796;2022-08-21T03:19:49;6.10;;;5.50;;
5900;SDS011;2976;49.764;9.796;2022-08-21T03:22:14;14.23;;;6.60;;
5900;SDS011;2976;49.764;9.796;2022-08-21T03:24:40;10.93;;;7.77;;
5900;SDS011;2976;49.764;9.796;2022-08-21T03:27:06;15.70;;;10.33;;
5900;SDS011;2976;49.764;9.796;2022-08-21T03:29:31;15.57;;;10.53;;
5900;SDS011;2976;49.764;9.796;2022-08-21T03:31:57;20.20;;;12.07;;
5900;SDS011;2976;49.764;9.796;2022-08-21T03:34:22;20.67;;;12.60;;
5900;SDS011;2976;49.764;9.796;2022-08-21T03:36:48;24.10;;;14.50;;
5900;SDS011;2976;49.764;9.796;2022-08-21T03:39:14;27.33;;;14.93;;
5900;SDS011;2976;49.764;9.796;2022-08-21T03:41:40;20.70;;;15.30;;
5900;SDS011;2976;49.764;9.796;2022-08-21T03:44:06;23.23;;;14.67;;
5900;SDS011;2976;49.764;9.796;2022-08-21T03:46:32;21.70;;;13.57;;
5900;SDS011;2976;49.764;9.796;2022-08-21T03:48:57;18.03;;;10.73;;
5900;SDS011;2976;49.764;9.796;2022-08-21T03:51:23;13.33;;;9.20;;
5900;SDS011;2976;49.764;9.796;2022-08-21T03:53:49;13.27;;;10.60;;
5900;SDS011;2976;49.764;9.796;2022-08-21T03:56:14;12.80;;;9.10;;
5900;SDS011;2976;49.764;9.796;2022-08-21T03:58:41;18.30;;;9.50;;
5900;SDS011;2976;49.764;9.796;2022-08-21T04:01:09;16.33;;;11.30;;
5900;SDS011;2976;49.764;9.796;2022-08-21T04:03:36;19.97;;;12.00;;
5900;SDS011;2976;49.764;9.796;2022-08-21T04:06:02;23.87;;;13.80;;
5900;SDS011;2976;49.764;9.796;2022-08-21T04:08:28;22.40;;;13.27;;
5900;SDS011;2976;49.764;9.796;2022-08-21T04:10:55;21.47;;;13.83;;
5900;SDS011;2976;49.764;9.796;2022-08-21T04:13:23;20.20;;;13.53;;
5900;SDS011;2976;49.764;9.796;2022-08-21T04:15:49;20.30;;;14.07;;
5900;SDS011;2976;49.764;9.796;2022-08-21T04:18:15;23.47;;;14.27;;
5900;SDS011;2976;49.764;9.796;2022-08-21T04:20:40;25.83;;;14.83;;
5900;SDS011;2976;49.764;9.796;2022-08-21T04:23:08;26.40;;;15.10;;
5900;SDS011;2976;49.764;9.796;2022-08-21T04:25:34;27.70;;;15.40;;
5900;SDS011;2976;49.764;9.796;2022-08-21T04:28:00;20.50;;;14.70;;
5900;SDS011;2976;49.764;9.796;2022-08-21T04:30:27;23.07;;;14.43;;
5900;SDS011;2976;49.764;9.796;2022-08-21T04:32:52;25.70;;;15.83;;
5900;SDS011;2976;49.764;9.796;2022-08-21T04:35:18;19.60;;;13.47;;
5900;SDS011;2976;49.764;9.796;2022-08-21T04:37:47;17.33;;;13.20;;
5900;SDS011;2976;49.764;9.796;2022-08-21T04:40:13;16.67;;;11.50;;
5900;SDS011;2976;49.764;9.796;2022-08-21T04:42:41;16.57;;;12.77;;
5900;SDS011;2976;49.764;9.796;2022-08-21T04:45:33;17.33;;;12.10;;
5900;SDS011;2976;49.764;9.796;2022-08-21T04:48:03;18.70;;;12.80;;
5900;SDS011;2976;49.764;9.796;2022-08-21T04:50:38;19.83;;;12.50;;
5900;SDS011;2976;49.764;9.796;2022-08-21T04:53:15;25.53;;;14.47;;
5900;SDS011;2976;49.764;9.796;2022-08-21T04:55:45;21.63;;;14.60;;
5900;SDS011;2976;49.764;9.796;2022-08-21T04:58:12;18.43;;;13.13;;
5900;SDS011;2976;49.764;9.796;2022-08-21T05:00:42;18.70;;;13.80;;
5900;SDS011;2976;49.764;9.796;2022-08-21T05:03:09;18.63;;;13.60;;
5900;SDS011;2976;49.764;9.796;2022-08-21T05:05:37;19.63;;;13.33;;
5900;SDS011;2976;49.764;9.796;2022-08-21T05:08:04;18.70;;;13.90;;
5900;SDS011;2976;49.764;9.796;2022-08-21T05:10:32;17.53;;;13.40;;
5900;SDS011;2976;49.764;9.796;2022-08-21T05:12:58;17.67;;;12.70;;
5900;SDS011;2976;49.764;9.796;2022-08-21T05:15:25;15.57;;;12.10;;
5900;SDS011;2976;49.764;9.796;2022-08-21T05:17:50;18.03;;;13.60;;
5900;SDS011;2976;49.764;9.796;2022-08-21T05:20:16;15.93;;;11.67;;
5900;SDS011;2976;49.764;9.796;2022-08-21T05:22:42;17.00;;;12.70;;
5900;SDS011;2976;49.764;9.796;2022-08-21T05:25:08;19.73;;;13.63;;
5900;SDS011;2976;49.764;9.796;2022-08-21T05:27:34;22.33;;;12.50;;
5900;SDS011;2976;49.764;9.796;2022-08-21T05:30:00;14.97;;;11.57;;
5900;SDS011;2976;49.764;9.796;2022-08-21T05:32:25;18.17;;;13.30;;
5900;SDS011;2976;49.764;9.796;2022-08-21T05:34:53;16.97;;;12.00;;
5900;SDS011;2976;49.764;9.796;2022-08-21T05:37:18;15.43;;;11.40;;
5900;SDS011;2976;49.764;9.796;2022-08-21T05:39:44;20.03;;;12.67;;
5900;SDS011;2976;49.764;9.796;2022-08-21T05:42:10;15.30;;;11.83;;
5900;SDS011;2976;49.764;9.796;2022-08-21T05:44:35;13.77;;;11.63;;
5900;SDS011;2976;49.764;9.796;2022-08-21T05:47:10;18.47;;;13.13;;
5900;SDS011;2976;49.764;9.796;2022-08-21T05:49:36;17.60;;;14.13;;
5900;SDS011;2976;49.764;9.796;2022-08-21T05:52:02;18.20;;;12.47;;
5900;SDS011;2976;49.764;9.796;2022-08-21T05:54:29;17.37;;;11.40;;
5900;SDS011;2976;49.764;9.796;2022-08-21T05:56:55;11.73;;;8.70;;
5900;SDS011;2976;49.764;9.796;2022-08-21T05:59:21;16.23;;;8.57;;
5900;SDS011;2976;49.764;9.796;2022-08-21T06:01:46;9.30;;;7.03;;
5900;SDS011;2976;49.764;9.796;2022-08-21T06:04:12;8.77;;;7.70;;
5900;SDS011;2976;49.764;9.796;2022-08-21T06:06:38;11.00;;;6.03;;
5900;SDS011;2976;49.764;9.796;2022-08-21T06:09:04;6.13;;;5.63;;
5900;SDS011;2976;49.764;9.796;2022-08-21T06:11:30;6.43;;;5.77;;
5900;SDS011;2976;49.764;9.796;2022-08-21T06:13:56;5.70;;;5.13;;
5900;SDS011;2976;49.764;9.796;2022-08-21T06:16:23;5.80;;;5.30;;
5900;SDS011;2976;49.764;9.796;2022-08-21T06:18:48;5.63;;;5.13;;
5900;SDS011;2976;49.764;9.796;2022-08-21T06:21:14;6.30;;;5.70;;
5900;SDS011;2976;49.764;9.796;2022-08-21T06:23:40;6.77;;;5.20;;
5900;SDS011;2976;49.764;9.796;2022-08-21T06:26:07;8.00;;;6.13;;
5900;SDS011;2976;49.764;9.796;2022-08-21T06:28:33;7.93;;;5.97;;
5900;SDS011;2976;49.764;9.796;2022-08-21T06:30:59;9.50;;;5.80;;
5900;SDS011;2976;49.764;9.796;2022-08-21T06:33:25;5.27;;;4.77;;
5900;SDS011;2976;49.764;9.796;2022-08-21T06:35:51;8.47;;;5.47;;
5900;SDS011;2976;49.764;9.796;2022-08-21T06:38:16;6.27;;;4.93;;
5900;SDS011;2976;49.764;9.796;2022-08-21T06:40:42;12.27;;;6.27;;
5900;SDS011;2976;49.764;9.796;2022-08-21T06:43:09;5.90;;;5.40;;
5900;SDS011;2976;49.764;9.796;2022-08-21T06:45:38;5.87;;;5.03;;
5900;SDS011;2976;49.764;9.796;2022-08-21T06:48:04;7.10;;;5.77;;
5900;SDS011;2976;49.764;9.796;2022-08-21T06:50:30;6.33;;;5.23;;
5900;SDS011;2976;49.764;9.796;2022-08-21T06:53:00;13.03;;;6.17;;
5900;SDS011;2976;49.764;9.796;2022-08-21T06:55:30;9.77;;;6.67;;
5900;SDS011;2976;49.764;9.796;2022-08-21T06:57:56;7.27;;;5.70;;
5900;SDS011;2976;49.764;9.796;2022-08-21T07:00:22;8.23;;;5.70;;
5900;SDS011;2976;49.764;9.796;2022-08-21T07:02:48;8.67;;;6.07;;
5900;SDS011;2976;49.764;9.796;2022-08-21T07:05:13;7.83;;;5.80;;
5900;SDS011;2976;49.764;9.796;2022-08-21T07:07:39;7.67;;;6.83;;
5900;SDS011;2976;49.764;9.796;2022-08-21T07:10:05;12.03;;;6.97;;
5900;SDS011;2976;49.764;9.796;2022-08-21T07:12:30;6.20;;;5.60;;
5900;SDS011;2976;49.764;9.796;2022-08-21T07:14:56;12.00;;;6.00;;
5900;SDS011;2976;49.764;9.796;2022-08-21T07:17:23;6.83;;;6.23;;
5900;SDS011;2976;49.764;9.796;2022-08-21T07:19:48;10.00;;;7.03;;
5900;SDS011;2976;49.764;9.796;2022-08-21T07:22:16;11.03;;;6.37;;
5900;SDS011;2976;49.764;9.796;2022-08-21T07:24:45;7.43;;;6.73;;
5900;SDS011;2976;49.764;9.796;2022-08-21T07:27:11;13.53;;;6.13;;
5900;SDS011;2976;49.764;9.796;2022-08-21T07:29:37;8.60;;;6.83;;
5900;SDS011;2976;49.764;9.796;2022-08-21T07:32:03;6.33;;;5.73;;
5900;SDS011;2976;49.764;9.796;2022-08-21T07:34:29;6.93;;;5.53;;
5900;SDS011;2976;49.764;9.796;2022-08-21T07:36:55;7.87;;;6.07;;
5900;SDS011;2976;49.764;9.796;2022-08-21T07:39:21;8.23;;;6.40;;
5900;SDS011;2976;49.764;9.796;2022-08-21T07:41:47;8.53;;;6.83;;
5900;SDS011;2976;49.764;9.796;2022-08-21T07:44:12;7.47;;;6.50;;
5900;SDS011;2976;49.764;9.796;2022-08-21T07:46:38;7.07;;;6.20;;
5900;SDS011;2976;49.764;9.796;2022-08-21T07:49:04;12.43;;;7.90;;
5900;SDS011;2976;49.764;9.796;2022-08-21T07:51:29;8.77;;;6.07;;
5900;SDS011;2976;49.764;9.796;2022-08-21T07:53:56;7.57;;;5.37;;
5900;SDS011;2976;49.764;9.796;2022-08-21T07:56:23;5.90;;;5.00;;
5900;SDS011;2976;49.764;9.796;2022-08-21T07:58:49;7.50;;;5.83;;
5900;SDS011;2976;49.764;9.796;2022-08-21T08:01:14;6.20;;;5.63;;
5900;SDS011;2976;49.764;9.796;2022-08-21T08:03:40;7.77;;;6.03;;
5900;SDS011;2976;49.764;9.796;2022-08-21T08:06:06;7.90;;;6.30;;
5900;SDS011;2976;49.764;9.796;2022-08-21T08:08:36;7.37;;;6.67;;
5900;SDS011;2976;49.764;9.796;2022-08-21T08:11:03;9.00;;;6.40;;
5900;SDS011;2976;49.764;9.796;2022-08-21T08:13:29;8.97;;;7.30;;
5900;SDS011;2976;49.764;9.796;2022-08-21T08:15:54;8.60;;;7.63;;
5900;SDS011;2976;49.764;9.796;2022-08-21T08:18:20;9.13;;;6.27;;
5900;SDS011;2976;49.764;9.796;2022-08-21T08:20:46;9.67;;;6.40;;
5900;SDS011;2976;49.764;9.796;2022-08-21T08:23:12;19.73;;;7.23;;
5900;SDS011;2976;49.764;9.796;2022-08-21T08:25:39;9.20;;;6.37;;
5900;SDS011;2976;49.764;9.796;2022-08-21T08:28:05;9.40;;;7.13;;
5900;SDS011;2976;49.764;9.796;2022-08-21T08:30:31;6.33;;;5.77;;
5900;SDS011;2976;49.764;9.796;2022-08-21T08:32:57;6.63;;;5.93;;
5900;SDS011;2976;49.764;9.796;2022-08-21T08:35:24;8.17;;;6.63;;
5900;SDS011;2976;49.764;9.796;2022-08-21T08:37:50;7.80;;;5.90;;
5900;SDS011;2976;49.764;9.796;2022-08-21T08:40:25;8.13;;;7.07;;
5900;SDS011;2976;49.764;9.796;2022-08-21T08:42:54;7.60;;;6.13;;
5900;SDS011;2976;49.764;9.796;2022-08-21T08:45:20;6.53;;;5.93;;
5900;SDS011;2976;49.764;9.796;2022-08-21T08:47:55;6.90;;;5.40;;
5900;SDS011;2976;49.764;9.796;2022-08-21T08:50:33;9.80;;;6.80;;
5900;SDS011;2976;49.764;9.796;2022-08-21T08:53:05;9.50;;;6.50;;
5900;SDS011;2976;49.764;9.796;2022-08-21T08:58:04;3.70;;;3.40;;
5900;SDS011;2976;49.764;9.796;2022-08-21T09:00:30;6.10;;;4.43;;
5900;SDS011;2976;49.764;9.796;2022-08-21T09:02:56;5.83;;;4.60;;
5900;SDS011;2976;49.764;9.796;2022-08-21T09:05:26;5.50;;;4.47;;
5900;SDS011;2976;49.764;9.796;2022-08-21T09:10:45;7.17;;;5.57;;
5900;SDS011;2976;49.764;9.796;2022-08-21T09:13:20;8.97;;;5.33;;
5900;SDS011;2976;49.764;9.796;2022-08-21T09:15:57;5.47;;;4.97;;
5900;SDS011;2976;49.764;9.796;2022-08-21T09:24:47;5.40;;;4.90;;
5900;SDS011;2976;49.764;9.796;2022-08-21T09:27:07;5.43;;;4.90;;
5900;SDS011;2976;49.764;9.796;2022-08-21T09:29:39;6.30;;;4.80;;
5900;SDS011;2976;49.764;9.796;2022-08-21T09:32:17;6.07;;;4.60;;
5900;SDS011;2976;49.764;9.796;2022-08-21T09:37:29;8.17;;;4.67;;
5900;SDS011;2976;49.764;9.796;2022-08-21T09:39:57;6.20;;;3.87;;
5900;SDS011;2976;49.764;9.796;2022-08-21T09:42:25;6.00;;;3.57;;
5900;SDS011;2976;49.764;9.796;2022-08-21T09:45:15;5.20;;;3.40;;
5900;SDS011;2976;49.764;9.796;2022-08-21T09:47:43;3.80;;;3.10;;
5900;SDS011;2976;49.764;9.796;2022-08-21T09:50:15;3.87;;;3.33;;
5900;SDS011;2976;49.764;9.796;2022-08-21T09:52:45;6.47;;;3.30;;
5900;SDS011;2976;49.764;9.796;2022-08-21T09:55:18;4.37;;;3.00;;
5900;SDS011;2976;49.764;9.796;2022-08-21T09:58:13;9.23;;;2.50;;
5900;SDS011;2976;49.764;9.796;2022-08-21T10:00:39;6.27;;;3.20;;
5900;SDS011;2976;49.764;9.796;2022-08-21T10:03:08;4.83;;;2.23;;
5900;SDS011;2976;49.764;9.796;2022-08-21T10:05:38;3.67;;;2.37;;
5900;SDS011;2976;49.764;9.796;2022-08-21T10:08:05;5.83;;;2.80;;
5900;SDS011;2976;49.764;9.796;2022-08-21T10:10:42;7.13;;;3.47;;
5900;SDS011;2976;49.764;9.796;2022-08-21T10:13:11;3.87;;;2.50;;
5900;SDS011;2976;49.764;9.796;2022-08-21T10:21:42;2.90;;;2.47;;
5900;SDS011;2976;49.764;9.796;2022-08-21T10:24:32;3.27;;;2.63;;
5900;SDS011;2976;49.764;9.796;2022-08-21T10:30:06;5.43;;;2.63;;
5900;SDS011;2976;49.764;9.796;2022-08-21T10:35:12;3.40;;;2.50;;
5900;SDS011;2976;49.764;9.796;2022-08-21T10:38:00;6.70;;;2.40;;
5900;SDS011;2976;49.764;9.796;2022-08-21T10:40:40;2.50;;;2.27;;
5900;SDS011;2976;49.764;9.796;2022-08-21T10:43:17;2.80;;;2.37;;
5900;SDS011;2976;49.764;9.796;2022-08-21T10:45:58;2.23;;;2.13;;
5900;SDS011;2976;49.764;9.796;2022-08-21T10:48:45;3.23;;;2.67;;
5900;SDS011;2976;49.764;9.796;2022-08-21T10:54:10;3.57;;;2.60;;
5900;SDS011;2976;49.764;9.796;2022-08-21T10:56:45;4.47;;;3.57;;
5900;SDS011;2976;49.764;9.796;2022-08-21T11:01:57;3.40;;;3.00;;
5900;SDS011;2976;49.764;9.796;2022-08-21T11:04:35;3.83;;;3.07;;
5900;SDS011;2976;49.764;9.796;2022-08-21T11:07:18;5.63;;;3.17;;
5900;SDS011;2976;49.764;9.796;2022-08-21T11:09:48;4.30;;;2.30;;
5900;SDS011;2976;49.764;9.796;2022-08-21T11:18:32;2.90;;;2.60;;
5900;SDS011;2976;49.764;9.796;2022-08-21T11:20:51;6.07;;;2.90;;
5900;SDS011;2976;49.764;9.796;2022-08-21T11:26:07;3.67;;;2.70;;
5900;SDS011;2976;49.764;9.796;2022-08-21T11:28:50;4.27;;;3.20;;
5900;SDS011;2976;49.764;9.796;2022-08-21T11:32:27;3.73;;;2.90;;
5900;SDS011;2976;49.764;9.796;2022-08-21T11:34:32;5.30;;;3.10;;
5900;SDS011;2976;49.764;9.796;2022-08-21T11:37:17;4.10;;;3.20;;
5900;SDS011;2976;49.764;9.796;2022-08-21T11:40:17;5.43;;;3.33;;
5900;SDS011;2976;49.764;9.796;2022-08-21T11:51:56;4.13;;;2.83;;
5900;SDS011;2976;49.764;9.796;2022-08-21T11:54:05;4.03;;;2.70;;
5900;SDS011;2976;49.764;9.796;2022-08-21T11:56:44;4.03;;;2.70;;
5900;SDS011;2976;49.764;9.796;2022-08-21T11:59:35;4.77;;;2.50;;
5900;SDS011;2976;49.764;9.796;2022-08-21T12:02:06;3.33;;;2.40;;
5900;SDS011;2976;49.764;9.796;2022-08-21T12:04:43;5.50;;;2.87;;
5900;SDS011;2976;49.764;9.796;2022-08-21T12:07:29;3.10;;;2.80;;
5900;SDS011;2976;49.764;9.796;2022-08-21T12:09:55;4.40;;;2.27;;
5900;SDS011;2976;49.764;9.796;2022-08-21T12:12:27;2.40;;;2.20;;
5900;SDS011;2976;49.764;9.796;2022-08-21T12:17:55;4.60;;;2.27;;
5900;SDS011;2976;49.764;9.796;2022-08-21T12:25:59;3.63;;;3.00;;
5900;SDS011;2976;49.764;9.796;2022-08-21T12:28:25;2.60;;;2.40;;
5900;SDS011;2976;49.764;9.796;2022-08-21T12:30:52;6.70;;;2.77;;
5900;SDS011;2976;49.764;9.796;2022-08-21T12:33:23;6.80;;;2.50;;
5900;SDS011;2976;49.764;9.796;2022-08-21T12:36:05;3.27;;;2.37;;
5900;SDS011;2976;49.764;9.796;2022-08-21T12:38:33;3.20;;;2.47;;
5900;SDS011;2976;49.764;9.796;2022-08-21T12:41:14;3.43;;;2.80;;
5900;SDS011;2976;49.764;9.796;2022-08-21T12:43:47;2.23;;;2.00;;
5900;SDS011;2976;49.764;9.796;2022-08-21T12:47:18;2.80;;;2.03;;
5900;SDS011;2976;49.764;9.796;2022-08-21T12:49:36;4.60;;;2.80;;
5900;SDS011;2976;49.764;9.796;2022-08-21T12:52:11;4.03;;;2.53;;
5900;SDS011;2976;49.764;9.796;2022-08-21T12:54:47;5.67;;;2.80;;
5900;SDS011;2976;49.764;9.796;2022-08-21T12:57:23;3.03;;;2.40;;
5900;SDS011;2976;49.764;9.796;2022-08-21T13:02:23;5.03;;;2.77;;
5900;SDS011;2976;49.764;9.796;2022-08-21T13:04:51;4.50;;;2.40;;
5900;SDS011;2976;49.764;9.796;2022-08-21T13:07:22;7.23;;;2.20;;
5900;SDS011;2976;49.764;9.796;2022-08-21T13:09:55;2.80;;;2.23;;
5900;SDS011;2976;49.764;9.796;2022-08-21T13:12:30;4.40;;;2.47;;
5900;SDS011;2976;49.764;9.796;2022-08-21T13:14:58;4.50;;;2.63;;
5900;SDS011;2976;49.764;9.796;2022-08-21T13:17:31;4.97;;;2.40;;
5900;SDS011;2976;49.764;9.796;2022-08-21T13:20:01;3.67;;;2.63;;
5900;SDS011;2976;49.764;9.796;2022-08-21T13:22:42;3.23;;;2.83;;
5900;SDS011;2976;49.764;9.796;2022-08-21T13:25:09;3.27;;;2.43;;
5900;SDS011;2976;49.764;9.796;2022-08-21T13:27:40;2.63;;;2.43;;
5900;SDS011;2976;49.764;9.796;2022-08-21T13:32:36;5.40;;;2.60;;
5900;SDS011;2976;49.764;9.796;2022-08-21T13:35:09;2.50;;;2.30;;
5900;SDS011;2976;49.764;9.796;2022-08-21T13:37:38;4.73;;;2.57;;
5900;SDS011;2976;49.764;9.796;2022-08-21T13:40:06;4.90;;;2.53;;
5900;SDS011;2976;49.764;9.796;2022-08-21T13:42:35;2.90;;;2.40;;
5900;SDS011;2976;49.764;9.796;2022-08-21T13:45:00;3.17;;;2.13;;
5900;SDS011;2976;49.764;9.796;2022-08-21T13:47:26;4.00;;;2.13;;
5900;SDS011;2976;49.764;9.796;2022-08-21T13:49:51;3.10;;;2.53;;
5900;SDS011;2976;49.764;9.796;2022-08-21T13:54:52;3.67;;;1.97;;
5900;SDS011;2976;49.764;9.796;2022-08-21T13:57:25;3.57;;;2.07;;
5900;SDS011;2976;49.764;9.796;2022-08-21T13:59:53;5.63;;;2.93;;
5900;SDS011;2976;49.764;9.796;2022-08-21T14:02:40;2.73;;;2.40;;
5900;SDS011;2976;49.764;9.796;2022-08-21T14:05:14;4.73;;;2.63;;
5900;SDS011;2976;49.764;9.796;2022-08-21T14:07:44;3.93;;;2.30;;
5900;SDS011;2976;49.764;9.796;2022-08-21T14:10:15;4.80;;;2.37;;
5900;SDS011;2976;49.764;9.796;2022-08-21T14:12:51;3.53;;;2.50;;
5900;SDS011;2976;49.764;9.796;2022-08-21T14:15:24;4.57;;;3.07;;
5900;SDS011;2976;49.764;9.796;2022-08-21T14:17:53;2.70;;;2.20;;
5900;SDS011;2976;49.764;9.796;2022-08-21T14:20:33;6.67;;;2.80;;
5900;SDS011;2976;49.764;9.796;2022-08-21T14:23:00;4.97;;;2.40;;
5900;SDS011;2976;49.764;9.796;2022-08-21T14:27:56;6.23;;;2.60;;
5900;SDS011;2976;49.764;9.796;2022-08-21T14:30:43;7.00;;;2.47;;
5900;SDS011;2976;49.764;9.796;2022-08-21T14:33:10;4.23;;;2.97;;
5900;SDS011;2976;49.764;9.796;2022-08-21T14:35:38;3.90;;;2.47;;
5900;SDS011;2976;49.764;9.796;2022-08-21T14:38:14;7.63;;;2.30;;
5900;SDS011;2976;49.764;9.796;2022-08-21T14:40:42;4.90;;;3.00;;
5900;SDS011;2976;49.764;9.796;2022-08-21T14:43:08;3.70;;;2.37;;
5900;SDS011;2976;49.764;9.796;2022-08-21T14:45:34;5.00;;;3.20;;
5900;SDS011;2976;49.764;9.796;2022-08-21T14:48:01;2.70;;;2.50;;
5900;SDS011;2976;49.764;9.796;2022-08-21T14:50:28;4.03;;;2.70;;
5900;SDS011;2976;49.764;9.796;2022-08-21T14:52:54;5.93;;;2.80;;
5900;SDS011;2976;49.764;9.796;2022-08-21T14:55:20;6.03;;;2.40;;
5900;SDS011;2976;49.764;9.796;2022-08-21T14:57:47;5.50;;;2.70;;
5900;SDS011;2976;49.764;9.796;2022-08-21T15:00:16;4.20;;;2.80;;
5900;SDS011;2976;49.764;9.796;2022-08-21T15:02:44;3.50;;;3.20;;
5900;SDS011;2976;49.764;9.796;2022-08-21T15:05:09;3.03;;;2.70;;
5900;SDS011;2976;49.764;9.796;2022-08-21T15:07:36;8.10;;;3.00;;
5900;SDS011;2976;49.764;9.796;2022-08-21T15:10:03;3.77;;;2.70;;
5900;SDS011;2976;49.764;9.796;2022-08-21T15:12:29;5.67;;;2.50;;
5900;SDS011;2976;49.764;9.796;2022-08-21T15:14:54;6.23;;;3.93;;
5900;SDS011;2976;49.764;9.796;2022-08-21T15:17:20;8.00;;;2.50;;
5900;SDS011;2976;49.764;9.796;2022-08-21T15:19:46;5.10;;;2.40;;
5900;SDS011;2976;49.764;9.796;2022-08-21T15:22:11;3.20;;;2.30;;
5900;SDS011;2976;49.764;9.796;2022-08-21T15:24:37;3.40;;;2.90;;
5900;SDS011;2976;49.764;9.796;2022-08-21T15:27:03;3.70;;;2.60;;
5900;SDS011;2976;49.764;9.796;2022-08-21T15:29:31;2.37;;;2.17;;
5900;SDS011;2976;49.764;9.796;2022-08-21T15:31:58;5.10;;;2.20;;
5900;SDS011;2976;49.764;9.796;2022-08-21T15:34:27;7.90;;;2.90;;
5900;SDS011;2976;49.764;9.796;2022-08-21T15:36:55;8.00;;;2.60;;
5900;SDS011;2976;49.764;9.796;2022-08-21T15:39:21;6.00;;;3.10;;
5900;SDS011;2976;49.764;9.796;2022-08-21T15:41:47;5.50;;;2.87;;
5900;SDS011;2976;49.764;9.796;2022-08-21T15:44:13;3.00;;;2.77;;
5900;SDS011;2976;49.764;9.796;2022-08-21T15:46:39;4.43;;;2.70;;
5900;SDS011;2976;49.764;9.796;2022-08-21T15:49:06;3.47;;;2.70;;
5900;SDS011;2976;49.764;9.796;2022-08-21T15:51:32;3.53;;;2.47;;
5900;SDS011;2976;49.764;9.796;2022-08-21T15:53:59;6.33;;;2.73;;
5900;SDS011;2976;49.764;9.796;2022-08-21T15:56:26;3.10;;;2.80;;
5900;SDS011;2976;49.764;9.796;2022-08-21T15:58:54;3.83;;;2.93;;
5900;SDS011;2976;49.764;9.796;2022-08-21T16:01:26;4.87;;;2.90;;
5900;SDS011;2976;49.764;9.796;2022-08-21T16:03:52;4.50;;;2.33;;
5900;SDS011;2976;49.764;9.796;2022-08-21T16:06:19;2.90;;;2.70;;
5900;SDS011;2976;49.764;9.796;2022-08-21T16:08:44;4.00;;;2.97;;
5900;SDS011;2976;49.764;9.796;2022-08-21T16:11:11;2.60;;;2.40;;
5900;SDS011;2976;49.764;9.796;2022-08-21T16:13:39;2.60;;;2.40;;
5900;SDS011;2976;49.764;9.796;2022-08-21T16:16:08;5.93;;;2.97;;
5900;SDS011;2976;49.764;9.796;2022-08-21T16:18:36;8.27;;;2.47;;
5900;SDS011;2976;49.764;9.796;2022-08-21T16:21:02;4.13;;;2.60;;
5900;SDS011;2976;49.764;9.796;2022-08-21T16:23:27;5.40;;;2.80;;
5900;SDS011;2976;49.764;9.796;2022-08-21T16:25:53;3.07;;;2.70;;